Time;durP1;ratioP1;P1;durP2;ratioP2;P2;SDS_P1;SDS_P2;PMS_P1;PMS_P2;Temp;Humidity;BMP_temperature;BMP_pressure;BME280_temperature;BME280_humidity;BME280_pressure;Samples;Min_cycle;Max_cycle;Signal;HPM_P1;HPM_P2
2023/08/24 00:01:41;;;;;;;8.30;7.50;;;;;;;20.09;96.65;98336.31;5032802;28;20635;-84
2023/08/24 00:04:07;;;;;;;8.47;7.77;;;;;;;20.01;97.07;98338.94;5032696;28;20209;-84
2023/08/24 00:06:36;;;;;;;8.37;7.57;;;;;;;19.98;98.15;98333.00;5032851;28;20272;-84
2023/08/24 00:09:04;;;;;;;8.20;7.50;;;;;;;19.90;99.08;98333.81;5032587;28;20626;-84
2023/08/24 00:11:31;;;;;;;9.67;8.07;;;;;;;19.83;100.00;98339.97;5032279;28;20208;-86
2023/08/24 00:13:57;;;;;;;8.80;7.90;;;;;;;19.76;100.00;98337.06;5032485;28;20300;-85
2023/08/24 00:16:24;;;;;;;8.43;7.63;;;;;;;19.75;100.00;98338.06;5032498;28;20718;-83
2023/08/24 00:18:50;;;;;;;8.00;7.20;;;;;;;19.74;100.00;98331.03;5033541;28;20212;-84
2023/08/24 00:21:16;;;;;;;8.73;7.93;;;;;;;19.70;100.00;98340.38;5033200;28;20243;-84
2023/08/24 00:23:44;;;;;;;8.90;7.67;;;;;;;19.69;100.00;98333.34;5032292;28;20208;-84
2023/08/24 00:26:11;;;;;;;8.63;7.73;;;;;;;19.67;100.00;98337.19;5032341;28;20246;-85
2023/08/24 00:28:37;;;;;;;8.80;8.00;;;;;;;19.63;100.00;98331.28;5032337;28;20223;-85
2023/08/24 00:31:04;;;;;;;8.77;7.97;;;;;;;19.64;100.00;98324.94;5031314;28;20582;-85
2023/08/24 00:33:30;;;;;;;8.53;7.63;;;;;;;19.62;100.00;98312.69;5032053;28;20209;-84
2023/08/24 00:36:00;;;;;;;8.23;7.43;;;;;;;19.62;100.00;98320.75;5032275;28;20236;-85
2023/08/24 00:38:27;;;;;;;9.90;8.37;;;;;;;19.58;100.00;98312.16;5031933;28;20800;-86
2023/08/24 00:40:55;;;;;;;8.80;7.47;;;;;;;19.51;100.00;98310.28;5032001;28;20239;-85
2023/08/24 00:43:23;;;;;;;8.93;7.50;;;;;;;19.43;100.00;98312.88;5032186;28;20220;-86
2023/08/24 00:45:50;;;;;;;9.07;8.27;;;;;;;19.40;100.00;98308.69;5032021;28;20315;-85
2023/08/24 00:48:17;;;;;;;8.90;7.50;;;;;;;19.38;100.00;98310.66;5031886;28;20213;-84
2023/08/24 00:50:44;;;;;;;8.43;7.60;;;;;;;19.39;100.00;98306.16;5031695;28;20215;-86
2023/08/24 00:53:11;;;;;;;9.30;8.50;;;;;;;19.37;100.00;98298.28;5031779;28;20208;-85
2023/08/24 00:55:37;;;;;;;9.20;8.30;;;;;;;19.35;100.00;98300.28;5032009;28;20232;-85
2023/08/24 00:58:06;;;;;;;8.37;7.57;;;;;;;19.34;100.00;98298.59;5031820;28;20204;-85
2023/08/24 01:00:33;;;;;;;8.87;7.97;;;;;;;19.35;100.00;98294.91;5031321;28;20232;-86
2023/08/24 01:02:59;;;;;;;9.30;7.80;;;;;;;19.38;100.00;98299.94;5031583;28;20213;-84
2023/08/24 01:05:26;;;;;;;9.10;8.23;;;;;;;19.39;100.00;98285.53;5031510;28;20224;-84
2023/08/24 01:07:52;;;;;;;9.47;8.57;;;;;;;19.43;100.00;98291.44;5032029;28;20205;-84
2023/08/24 01:10:19;;;;;;;8.97;8.07;;;;;;;19.42;100.00;98279.88;5031543;28;20245;-85
2023/08/24 01:13:00;;;;;;;8.93;7.93;;;;;;;19.40;100.00;98281.03;5031644;28;20212;-85
2023/08/24 01:15:36;;;;;;;9.37;8.33;;;;;;;19.36;100.00;98290.38;5031478;28;20228;-85
2023/08/24 01:18:14;;;;;;;9.03;8.23;;;;;;;19.32;100.00;98289.84;5031449;28;20215;-86
2023/08/24 01:20:43;;;;;;;9.13;8.33;;;;;;;19.32;100.00;98292.53;5031375;28;20601;-84
2023/08/24 01:23:24;;;;;;;9.00;8.20;;;;;;;19.31;100.00;98287.31;5031617;28;20239;-85
2023/08/24 01:25:53;;;;;;;8.63;7.83;;;;;;;19.27;100.00;98285.97;5031368;28;20232;-85
2023/08/24 01:28:22;;;;;;;9.10;8.30;;;;;;;19.24;100.00;98273.72;5031359;28;20216;-85
2023/08/24 01:30:48;;;;;;;9.93;8.37;;;;;;;19.25;100.00;98277.22;5031375;28;20209;-86
2023/08/24 01:33:15;;;;;;;11.00;8.93;;;;;;;19.15;100.00;98271.94;5031612;28;20208;-84
2023/08/24 01:35:42;;;;;;;8.97;8.07;;;;;;;19.13;100.00;98279.28;5031610;28;20232;-84
2023/08/24 01:38:12;;;;;;;9.10;8.20;;;;;;;19.04;100.00;98274.88;5031381;28;20208;-85
2023/08/24 01:40:49;;;;;;;9.70;8.70;;;;;;;19.00;100.00;98284.22;5030999;28;20228;-85
2023/08/24 01:43:17;;;;;;;9.03;8.13;;;;;;;19.01;100.00;98293.09;5035329;28;20256;-85
2023/08/24 01:45:47;;;;;;;9.23;8.33;;;;;;;19.02;100.00;98292.09;5035526;28;20254;-84
2023/08/24 01:48:14;;;;;;;9.40;8.50;;;;;;;19.05;100.00;98300.66;5035182;28;20694;-84
2023/08/24 01:50:42;;;;;;;8.97;8.13;;;;;;;19.05;100.00;98287.28;5035068;28;20200;-85
2023/08/24 01:53:09;;;;;;;9.53;8.37;;;;;;;19.05;100.00;98281.91;5035280;28;20209;-85
2023/08/24 01:55:35;;;;;;;9.70;8.70;;;;;;;19.09;100.00;98285.13;5035206;28;20228;-85
2023/08/24 01:58:02;;;;;;;9.90;8.90;;;;;;;19.07;100.00;98279.91;5035336;28;20209;-85
2023/08/24 02:00:29;;;;;;;9.23;8.33;;;;;;;19.01;100.00;98279.72;5034719;28;20753;-85
2023/08/24 02:02:57;;;;;;;9.37;8.37;;;;;;;19.01;100.00;98283.22;5035071;28;20209;-84
2023/08/24 02:05:27;;;;;;;9.40;8.50;;;;;;;18.93;100.00;98288.50;5035023;28;20237;-85
2023/08/24 02:07:53;;;;;;;9.33;8.37;;;;;;;18.92;100.00;98297.53;5034831;28;20303;-85
2023/08/24 02:10:20;;;;;;;9.93;8.93;;;;;;;18.88;100.00;98292.63;5034583;28;20282;-84
2023/08/24 02:12:46;;;;;;;9.50;8.57;;;;;;;18.82;100.00;98294.09;5034628;28;20208;-84
2023/08/24 02:15:13;;;;;;;9.00;8.10;;;;;;;18.79;100.00;98286.38;5034704;28;20233;-84
2023/08/24 02:17:39;;;;;;;9.83;8.30;;;;;;;18.80;100.00;98297.91;5035067;28;20240;-84
2023/08/24 02:20:09;;;;;;;9.33;8.43;;;;;;;18.78;100.00;98289.22;5034646;28;20213;-86
2023/08/24 02:22:35;;;;;;;9.43;8.47;;;;;;;18.76;100.00;98291.16;5043762;28;20235;-84
2023/08/24 02:25:03;;;;;;;10.33;8.60;;;;;;;18.76;100.00;98286.66;5055397;28;20304;-81
2023/08/24 02:27:29;;;;;;;9.37;8.40;;;;;;;18.73;100.00;98283.47;5052686;28;20244;-84
2023/08/24 02:29:56;;;;;;;9.90;8.97;;;;;;;18.68;100.00;98278.56;5043440;28;20211;-84
2023/08/24 02:32:22;;;;;;;9.50;8.50;;;;;;;18.65;100.00;98273.50;5034534;28;20644;-84
2023/08/24 02:34:49;;;;;;;10.33;9.27;;;;;;;18.66;100.00;98280.53;5034502;28;20228;-84
2023/08/24 02:37:16;;;;;;;10.73;9.27;;;;;;;18.65;100.00;98278.84;5034322;28;20208;-85
2023/08/24 02:39:43;;;;;;;10.43;9.17;;;;;;;18.62;100.00;98284.53;5033931;28;20663;-84
2023/08/24 02:42:10;;;;;;;10.43;9.40;;;;;;;18.63;100.00;98278.19;5034421;28;20263;-84
2023/08/24 02:44:36;;;;;;;9.47;8.57;;;;;;;18.68;100.00;98273.22;5034378;28;20212;-84
2023/08/24 02:47:03;;;;;;;9.80;8.90;;;;;;;18.72;100.00;98279.94;5034436;28;20211;-84
2023/08/24 02:49:29;;;;;;;9.87;8.87;;;;;;;18.80;100.00;98277.34;5033817;28;20208;-85
2023/08/24 02:51:55;;;;;;;10.23;9.23;;;;;;;18.82;100.00;98270.00;5034195;28;20616;-84
2023/08/24 02:54:23;;;;;;;8.83;8.03;;;;;;;18.83;100.00;98271.66;5054680;28;20205;-84
2023/08/24 02:56:50;;;;;;;10.23;8.53;;;;;;;18.82;100.00;98277.16;5059770;28;20225;-84
2023/08/24 02:59:16;;;;;;;9.00;8.20;;;;;;;18.79;100.00;98281.03;5059380;28;20195;-84
2023/08/24 03:01:43;;;;;;;10.13;8.40;;;;;;;18.78;100.00;98263.25;5056709;28;20232;-84
2023/08/24 03:04:09;;;;;;;9.10;8.20;;;;;;;18.74;100.00;98264.56;5037817;28;20227;-84
2023/08/24 03:06:36;;;;;;;9.40;8.50;;;;;;;18.71;100.00;98261.38;5036787;28;20235;-84
2023/08/24 03:09:03;;;;;;;11.57;8.53;;;;;;;18.70;100.00;98268.53;5037859;28;20208;-85
2023/08/24 03:11:31;;;;;;;9.33;8.40;;;;;;;18.71;100.00;98262.19;5035918;28;20233;-84
2023/08/24 03:13:58;;;;;;;9.43;8.53;;;;;;;18.72;100.00;98260.38;5033641;28;20220;-84
2023/08/24 03:16:24;;;;;;;11.03;9.47;;;;;;;18.71;100.00;98267.53;5033637;28;20232;-84
2023/08/24 03:18:51;;;;;;;9.80;8.90;;;;;;;18.72;100.00;98253.16;5033456;28;20205;-85
2023/08/24 03:21:17;;;;;;;10.20;8.73;;;;;;;18.75;100.00;98260.91;5033546;28;20251;-84
2023/08/24 03:23:44;;;;;;;9.47;8.47;;;;;;;18.80;100.00;98255.94;5033392;28;20208;-84
2023/08/24 03:26:10;;;;;;;9.53;8.57;;;;;;;18.79;100.00;98254.25;5057714;22;20632;-85
2023/08/24 03:28:38;;;;;;;10.43;8.57;;;;;;;18.83;100.00;98252.91;5053102;28;20211;-85
2023/08/24 03:31:07;;;;;;;11.70;9.07;;;;;;;18.78;100.00;98252.53;5052614;28;20628;-85
2023/08/24 03:33:34;;;;;;;10.47;9.07;;;;;;;18.64;100.00;98254.91;5052802;28;20222;-85
2023/08/24 03:36:01;;;;;;;10.53;8.90;;;;;;;18.51;100.00;98252.63;5053036;28;20651;-85
2023/08/24 03:38:27;;;;;;;9.60;8.60;;;;;;;18.45;100.00;98250.56;5052851;28;20204;-85
2023/08/24 03:41:00;;;;;;;9.47;8.43;;;;;;;18.43;100.00;98241.00;5052301;28;20690;-85
2023/08/24 03:43:27;;;;;;;9.13;8.33;;;;;;;18.42;100.00;98234.78;5052522;28;20211;-85
2023/08/24 03:45:55;;;;;;;9.47;8.57;;;;;;;18.41;100.00;98238.47;5052474;28;20231;-85
2023/08/24 03:48:21;;;;;;;9.40;8.50;;;;;;;18.43;100.00;98228.47;5052596;28;20689;-85
2023/08/24 03:50:48;;;;;;;9.43;8.53;;;;;;;18.42;100.00;98229.44;5052295;28;20203;-85
2023/08/24 03:53:14;;;;;;;9.37;8.47;;;;;;;18.42;100.00;98229.44;5052471;28;20204;-85
2023/08/24 03:55:41;;;;;;;9.57;8.57;;;;;;;18.47;100.00;98219.13;5052396;28;20224;-84
2023/08/24 03:58:07;;;;;;;10.00;9.00;;;;;;;18.54;100.00;98214.84;5052142;28;20665;-85
2023/08/24 04:00:34;;;;;;;9.53;8.67;;;;;;;18.58;100.00;98208.19;5051830;28;20299;-85
2023/08/24 04:03:02;;;;;;;9.77;8.83;;;;;;;18.65;100.00;98206.56;5052156;28;20208;-85
2023/08/24 04:05:28;;;;;;;10.03;8.80;;;;;;;18.72;100.00;98204.94;5052074;28;20318;-85
2023/08/24 04:07:55;;;;;;;11.77;9.90;;;;;;;18.74;100.00;98208.34;5052230;28;20253;-85
2023/08/24 04:10:21;;;;;;;11.60;10.50;;;;;;;18.79;100.00;98200.69;5051680;28;20733;-85
2023/08/24 04:12:48;;;;;;;11.27;10.17;;;;;;;18.85;100.00;98199.22;5051955;28;20218;-85
2023/08/24 04:15:14;;;;;;;11.43;10.13;;;;;;;18.90;100.00;98196.91;5051751;28;20254;-85
2023/08/24 04:17:41;;;;;;;10.77;9.77;;;;;;;18.91;100.00;98194.06;5051862;28;20212;-85
2023/08/24 04:20:10;;;;;;;11.37;9.00;;;;;;;18.94;100.00;98187.56;5051553;28;20208;-85
2023/08/24 04:22:36;;;;;;;10.57;9.57;;;;;;;18.97;100.00;98198.78;5052101;28;20232;-85
2023/08/24 04:25:04;;;;;;;10.80;9.73;;;;;;;18.97;100.00;98196.09;5051772;28;20215;-84
2023/08/24 04:27:30;;;;;;;10.47;9.47;;;;;;;19.00;100.00;98193.13;5051737;28;20306;-85
2023/08/24 04:29:57;;;;;;;11.53;10.23;;;;;;;19.00;100.00;98190.47;5051830;28;20212;-85
2023/08/24 04:32:24;;;;;;;9.70;8.70;;;;;;;19.00;100.00;98190.47;5052215;28;20558;-85
2023/08/24 04:34:50;;;;;;;9.43;8.53;;;;;;;19.00;100.00;98193.13;5051985;28;20378;-85
2023/08/24 04:37:18;;;;;;;9.63;8.73;;;;;;;19.00;100.00;98198.50;5051814;28;20259;-85
2023/08/24 04:39:44;;;;;;;9.57;8.77;;;;;;;18.97;100.00;98192.59;5051585;28;20208;-85
2023/08/24 04:42:11;;;;;;;9.00;8.13;;;;;;;18.95;100.00;98190.06;5051493;28;20228;-85
2023/08/24 04:44:37;;;;;;;9.13;8.33;;;;;;;18.91;100.00;98183.34;5051692;28;20211;-85
2023/08/24 04:47:04;;;;;;;9.33;8.33;;;;;;;18.87;100.00;98187.34;5051589;28;20239;-85
2023/08/24 04:49:30;;;;;;;9.43;8.53;;;;;;;18.82;100.00;98180.75;5051274;28;20230;-85
2023/08/24 04:51:57;;;;;;;9.37;8.47;;;;;;;18.76;100.00;98171.53;5051805;28;20208;-85
2023/08/24 04:54:25;;;;;;;9.40;8.50;;;;;;;18.67;100.00;98177.84;5051776;28;20217;-85
2023/08/24 04:56:51;;;;;;;9.77;8.87;;;;;;;18.57;100.00;98177.06;5051425;28;20232;-86
2023/08/24 04:59:18;;;;;;;9.60;8.70;;;;;;;18.53;100.00;98177.53;5051511;28;20218;-85
2023/08/24 05:01:44;;;;;;;10.37;9.33;;;;;;;18.47;100.00;98184.31;5051745;28;20235;-85
2023/08/24 05:04:11;;;;;;;10.43;9.33;;;;;;;18.44;100.00;98187.31;5051499;28;20212;-85
2023/08/24 05:06:37;;;;;;;11.10;9.93;;;;;;;18.39;100.00;98186.94;5051369;28;20228;-85
2023/08/24 05:09:04;;;;;;;9.97;9.00;;;;;;;18.45;100.00;98186.31;5051152;28;20219;-85
2023/08/24 05:11:32;;;;;;;10.00;8.63;;;;;;;18.51;100.00;98172.31;5050826;28;20216;-85
2023/08/24 05:13:58;;;;;;;11.77;9.33;;;;;;;18.60;100.00;98174.06;5051326;28;20204;-85
2023/08/24 05:16:25;;;;;;;10.63;8.63;;;;;;;18.73;100.00;98166.50;5050565;28;20228;-85
2023/08/24 05:18:51;;;;;;;9.93;8.93;;;;;;;18.84;100.00;98160.03;5051378;28;20631;-85
2023/08/24 05:21:18;;;;;;;9.80;8.83;;;;;;;18.90;100.00;98157.56;5050855;28;20240;-85
2023/08/24 05:23:44;;;;;;;10.17;9.17;;;;;;;18.92;100.00;98152.06;5050920;28;20674;-84
2023/08/24 05:26:11;;;;;;;9.40;8.50;;;;;;;18.95;100.00;98146.41;5050878;28;20246;-85
2023/08/24 05:28:38;;;;;;;10.43;9.33;;;;;;;19.02;100.00;98148.25;5051237;28;20602;-85
2023/08/24 05:31:05;;;;;;;9.73;8.77;;;;;;;19.07;100.00;98148.63;5050767;28;20203;-85
2023/08/24 05:33:33;;;;;;;10.70;9.47;;;;;;;19.19;100.00;98146.56;5051165;28;20693;-85
2023/08/24 05:35:59;;;;;;;11.73;9.47;;;;;;;19.27;100.00;98147.44;5051569;28;20232;-85
2023/08/24 05:38:26;;;;;;;10.40;9.13;;;;;;;19.36;100.00;98151.84;5051318;28;20578;-85
2023/08/24 05:40:52;;;;;;;9.87;8.80;;;;;;;19.48;100.00;98134.50;5051133;28;20221;-85
2023/08/24 05:43:19;;;;;;;9.23;8.33;;;;;;;19.69;100.00;98136.75;5051339;28;20255;-85
2023/08/24 05:45:49;;;;;;;11.17;10.03;;;;;;;19.82;100.00;98137.94;5051447;28;20251;-85
2023/08/24 05:48:15;;;;;;;10.57;9.43;;;;;;;19.96;100.00;98134.66;5051352;28;20538;-85
2023/08/24 05:50:46;;;;;;;9.40;8.40;;;;;;;20.11;100.00;98137.56;5050810;28;20215;-85
2023/08/24 05:53:13;;;;;;;10.70;9.23;;;;;;;20.19;100.00;98129.53;5050633;28;20205;-85
2023/08/24 05:55:39;;;;;;;11.43;9.10;;;;;;;20.25;100.00;98134.22;5050869;28;20256;-85
2023/08/24 05:58:06;;;;;;;9.70;8.70;;;;;;;20.33;100.00;98137.75;5050694;28;20219;-85
2023/08/24 06:00:32;;;;;;;9.00;8.10;;;;;;;20.42;100.00;98131.38;5050754;28;20212;-85
2023/08/24 06:03:00;;;;;;;8.63;7.83;;;;;;;20.53;100.00;98136.44;5050930;28;20339;-85
2023/08/24 06:05:27;;;;;;;9.87;8.50;;;;;;;20.64;100.00;98133.41;5050739;28;20257;-85
2023/08/24 06:07:54;;;;;;;8.77;7.90;;;;;;;20.76;100.00;98134.75;5051328;28;20631;-85
2023/08/24 06:10:21;;;;;;;10.53;8.70;;;;;;;20.92;100.00;98134.75;5050693;28;20606;-86
2023/08/24 06:12:47;;;;;;;9.80;8.90;;;;;;;20.99;100.00;98135.75;5050895;28;20555;-81
2023/08/24 06:15:14;;;;;;;10.07;8.87;;;;;;;21.08;100.00;98132.03;5050579;28;20315;-85
2023/08/24 06:17:40;;;;;;;8.93;8.13;;;;;;;21.23;100.00;98132.16;5050611;28;20208;-85
2023/08/24 06:20:11;;;;;;;10.10;8.57;;;;;;;21.40;100.00;98134.63;5050367;28;20235;-85
2023/08/24 06:22:37;;;;;;;8.60;7.70;;;;;;;21.61;98.63;98131.34;5050985;28;20224;-85
2023/08/24 06:25:05;;;;;;;9.00;8.10;;;;;;;21.81;94.76;98130.78;5053375;28;20208;-86
2023/08/24 06:27:31;;;;;;;8.83;7.93;;;;;;;21.95;92.68;98135.41;5051773;28;20208;-84
2023/08/24 06:29:58;;;;;;;8.67;7.77;;;;;;;22.08;90.94;98141.06;5053800;28;20577;-85
2023/08/24 06:32:24;;;;;;;8.70;7.57;;;;;;;22.20;90.57;98145.03;5054756;28;20211;-85
2023/08/24 06:34:51;;;;;;;8.10;7.17;;;;;;;22.29;89.00;98138.59;5055048;28;20212;-85
2023/08/24 06:37:19;;;;;;;8.20;7.40;;;;;;;22.32;87.06;98148.16;5058782;28;20208;-85
2023/08/24 06:39:45;;;;;;;9.80;6.90;;;;;;;22.39;84.99;98149.97;5071356;28;20308;-85
2023/08/24 06:42:12;;;;;;;7.23;6.53;;;;;;;22.35;83.63;98156.72;5062158;28;20270;-85
2023/08/24 06:44:38;;;;;;;7.23;6.63;;;;;;;22.34;83.94;98173.91;5056248;28;20663;-85
2023/08/24 06:47:05;;;;;;;7.03;6.33;;;;;;;22.31;83.93;98184.19;5056103;28;20234;-85
2023/08/24 06:49:31;;;;;;;9.37;6.67;;;;;;;22.25;83.27;98193.81;5065675;28;20200;-85
2023/08/24 06:51:58;;;;;;;7.67;6.87;;;;;;;22.23;81.98;98190.44;5078811;28;20204;-84
2023/08/24 06:54:26;;;;;;;8.17;6.60;;;;;;;22.19;81.58;98205.28;5078754;28;20271;-85
2023/08/24 06:56:52;;;;;;;8.03;6.70;;;;;;;22.25;82.69;98220.72;5078485;28;20279;-85
2023/08/24 06:59:19;;;;;;;7.67;6.87;;;;;;;22.24;83.53;98227.13;5063823;28;20219;-85
2023/08/24 07:01:47;;;;;;;7.83;7.00;;;;;;;22.23;82.77;98205.75;5078443;28;20192;-85
2023/08/24 07:04:13;;;;;;;7.73;6.40;;;;;;;22.32;81.68;98192.06;5078385;28;20208;-85
2023/08/24 07:06:40;;;;;;;6.90;5.47;;;;;;;22.33;80.50;98177.63;5078479;28;20216;-84
2023/08/24 07:09:07;;;;;;;6.20;5.60;;;;;;;22.37;81.44;98183.47;5077866;28;20212;-85
2023/08/24 07:11:35;;;;;;;6.70;6.10;;;;;;;22.52;81.01;98179.88;5078253;28;20215;-85
2023/08/24 07:14:02;;;;;;;7.50;6.03;;;;;;;22.67;79.83;98153.81;5078124;28;20212;-85
2023/08/24 07:16:28;;;;;;;6.83;6.23;;;;;;;22.77;82.25;98156.25;5068419;28;20239;-83
2023/08/24 07:18:55;;;;;;;6.10;5.60;;;;;;;22.88;83.64;98153.13;5059834;28;20204;-84
2023/08/24 07:21:21;;;;;;;7.00;6.30;;;;;;;23.04;83.43;98153.00;5059567;28;20215;-83
2023/08/24 07:23:48;;;;;;;6.77;6.13;;;;;;;23.10;83.23;98144.97;5059508;28;20228;-84
2023/08/24 07:26:14;;;;;;;6.93;6.33;;;;;;;23.12;83.33;98158.28;5062561;28;20240;-84
2023/08/24 07:28:42;;;;;;;6.77;6.10;;;;;;;23.18;82.43;98147.66;5072144;28;20214;-85
2023/08/24 07:31:10;;;;;;;6.60;5.90;;;;;;;23.20;81.73;98148.31;5054043;28;20615;-85
2023/08/24 07:33:37;;;;;;;7.00;5.93;;;;;;;23.17;80.31;98148.66;5053298;28;20219;-85
2023/08/24 07:36:04;;;;;;;6.70;5.83;;;;;;;23.18;80.80;98153.03;5052657;28;20247;-85
2023/08/24 07:38:31;;;;;;;6.60;5.93;;;;;;;23.22;80.76;98153.50;5052756;28;20204;-85
2023/08/24 07:40:57;;;;;;;5.97;5.47;;;;;;;23.16;81.04;98151.53;5052097;28;20243;-85
2023/08/24 07:43:24;;;;;;;6.20;5.63;;;;;;;23.14;81.43;98165.19;5052572;28;20631;-85
2023/08/24 07:45:52;;;;;;;6.27;5.67;;;;;;;23.12;77.77;98142.97;5052434;28;20223;-85
2023/08/24 07:48:18;;;;;;;6.23;5.57;;;;;;;23.09;76.72;98132.53;5052813;28;20204;-85
2023/08/24 07:50:45;;;;;;;6.13;5.53;;;;;;;23.13;76.54;98133.84;5052413;28;20212;-85
2023/08/24 07:53:11;;;;;;;6.30;5.70;;;;;;;23.18;77.10;98133.31;5052562;28;20211;-85
2023/08/24 07:55:38;;;;;;;5.80;5.20;;;;;;;23.28;76.02;98125.81;5061606;28;20228;-85
2023/08/24 07:58:04;;;;;;;6.73;5.27;;;;;;;23.42;77.17;98139.28;5057557;28;20222;-85
2023/08/24 08:00:31;;;;;;;5.50;5.00;;;;;;;23.53;74.90;98140.69;5052432;28;20212;-85
2023/08/24 08:03:00;;;;;;;5.60;5.10;;;;;;;23.67;73.56;98148.78;5052487;28;20228;-85
2023/08/24 08:05:26;;;;;;;7.00;5.50;;;;;;;23.81;71.25;98145.22;5052142;28;20282;-85
2023/08/24 08:07:53;;;;;;;6.13;5.00;;;;;;;23.96;70.24;98137.94;5052313;28;20208;-85
2023/08/24 08:10:21;;;;;;;5.30;4.80;;;;;;;23.94;70.50;98137.31;5051937;28;20207;-85
2023/08/24 08:12:47;;;;;;;6.90;5.57;;;;;;;24.09;69.29;98132.69;5052478;28;20200;-85
2023/08/24 08:15:14;;;;;;;6.53;4.93;;;;;;;24.17;68.47;98135.31;5052008;28;20702;-86
2023/08/24 08:17:42;;;;;;;5.27;4.83;;;;;;;24.15;68.22;98115.72;5052281;28;20204;-85
2023/08/24 08:20:11;;;;;;;5.50;5.00;;;;;;;24.17;69.50;98124.50;5052234;28;20215;-86
2023/08/24 08:22:38;;;;;;;5.40;4.87;;;;;;;24.31;69.26;98120.09;5052316;28;20323;-86
2023/08/24 08:25:06;;;;;;;5.90;4.97;;;;;;;24.49;69.07;98118.59;5051767;28;20307;-85
2023/08/24 08:27:33;;;;;;;5.23;4.77;;;;;;;24.67;69.07;98123.56;5052070;28;20671;-85
2023/08/24 08:30:00;;;;;;;6.00;4.90;;;;;;;24.97;66.71;98123.22;5051674;28;20208;-86
2023/08/24 08:32:27;;;;;;;5.50;5.00;;;;;;;24.99;65.24;98118.44;5052051;28;20211;-85
2023/08/24 08:34:54;;;;;;;5.57;5.07;;;;;;;25.12;65.96;98115.81;5051675;28;20346;-85
2023/08/24 08:37:21;;;;;;;6.27;4.60;;;;;;;25.22;65.45;98124.44;5051806;28;20203;-86
2023/08/24 08:39:48;;;;;;;5.20;4.70;;;;;;;25.35;65.49;98129.97;5051510;28;20218;-86
2023/08/24 08:42:15;;;;;;;5.47;4.97;;;;;;;25.49;65.35;98123.59;5051730;28;20562;-85
2023/08/24 08:44:42;;;;;;;5.30;4.80;;;;;;;25.62;64.62;98123.69;5051503;28;20219;-86
2023/08/24 08:47:11;;;;;;;5.83;4.97;;;;;;;25.76;65.05;98124.56;5051495;28;20236;-85
2023/08/24 08:49:39;;;;;;;6.35;4.75;;;;;;;25.86;64.35;98115.06;5051043;28;20208;-86
2023/08/24 08:52:06;;;;;;;6.47;4.82;;;;;;;25.95;62.05;98103.03;5050773;28;20208;-85
2023/08/24 08:54:34;;;;;;;6.50;5.30;;;;;;;26.08;63.42;98110.38;5051545;28;20208;-86
2023/08/24 08:57:01;;;;;;;6.30;4.77;;;;;;;26.20;63.67;98119.59;5051235;28;20667;-86
2023/08/24 08:59:30;;;;;;;5.47;4.97;;;;;;;26.20;61.44;98104.13;5051103;28;20208;-85
2023/08/24 09:01:57;;;;;;;5.45;4.63;;;;;;;26.29;62.10;98108.34;5051338;28;20286;-86
2023/08/24 09:04:25;;;;;;;5.30;4.80;;;;;;;26.30;61.87;98110.00;5051208;28;20228;-86
2023/08/24 09:06:51;;;;;;;5.70;5.20;;;;;;;26.49;61.91;98106.50;5051074;28;20234;-86
2023/08/24 09:09:19;;;;;;;5.05;4.60;;;;;;;26.58;62.10;98101.75;5051126;28;20212;-86
2023/08/24 09:11:48;;;;;;;5.40;4.68;;;;;;;26.68;61.75;98094.03;5051329;28;20298;-86
2023/08/24 09:14:14;;;;;;;5.07;4.55;;;;;;;26.82;62.14;98091.09;5051128;28;20503;-86
2023/08/24 09:16:42;;;;;;;5.90;5.30;;;;;;;26.93;61.61;98076.94;5051147;28;20262;-86
2023/08/24 09:19:12;;;;;;;7.45;5.10;;;;;;;27.06;60.09;98060.63;5050868;28;20203;-86
2023/08/24 09:21:41;;;;;;;7.10;5.18;;;;;;;27.14;60.54;98063.97;5051452;28;20216;-87
2023/08/24 09:24:08;;;;;;;7.03;4.93;;;;;;;27.25;59.88;98067.94;5050962;28;20318;-86
2023/08/24 09:26:42;;;;;;;6.30;5.50;;;;;;;27.24;60.03;98066.25;5056671;22;20244;-84
2023/08/24 09:29:14;;;;;;;5.50;4.65;;;;;;;27.31;59.84;98058.94;5031452;28;20197;-86
2023/08/24 09:31:43;;;;;;;5.60;5.10;;;;;;;27.57;57.95;98031.72;5031507;28;20216;-85
2023/08/24 09:34:11;;;;;;;5.18;4.70;;;;;;;27.55;57.84;98028.38;5031776;28;20629;-86
2023/08/24 09:36:38;;;;;;;5.68;5.18;;;;;;;27.53;58.24;98020.44;5031506;28;20229;-84
2023/08/24 09:39:06;;;;;;;5.28;4.70;;;;;;;27.67;58.21;98027.50;5031314;28;20209;-86
2023/08/24 09:41:39;;;;;;;5.38;4.88;;;;;;;27.77;57.41;98022.44;5031821;28;20299;-85
2023/08/24 09:44:05;;;;;;;5.50;5.03;;;;;;;27.74;57.46;98019.28;5031271;28;20359;-85
2023/08/24 09:46:33;;;;;;;5.45;4.90;;;;;;;27.87;57.45;98013.81;5031420;28;20233;-85
2023/08/24 09:49:01;;;;;;;6.65;5.63;;;;;;;27.89;56.73;98007.13;5031557;28;20204;-85
2023/08/24 09:51:28;;;;;;;5.47;4.97;;;;;;;27.83;57.16;98004.47;5048968;28;20239;-84
2023/08/24 09:53:58;;;;;;;5.43;4.93;;;;;;;27.83;57.72;97996.31;5052491;28;20211;-83
2023/08/24 09:56:28;;;;;;;5.55;5.03;;;;;;;27.96;59.08;98004.38;5052917;28;20252;-84
2023/08/24 09:58:55;;;;;;;6.88;4.93;;;;;;;28.20;59.61;98000.88;5034523;28;20209;-85
2023/08/24 10:01:24;;;;;;;5.72;5.15;;;;;;;28.38;57.28;97976.53;5030965;28;20213;-85
2023/08/24 10:03:53;;;;;;;5.38;4.88;;;;;;;28.41;55.68;97954.31;5034768;28;20228;-85
2023/08/24 10:06:21;;;;;;;5.25;4.80;;;;;;;28.44;56.37;97957.41;5035049;28;20236;-84
2023/08/24 10:08:54;;;;;;;6.05;4.68;;;;;;;28.55;56.54;97955.88;5035249;28;20210;-85
2023/08/24 10:11:26;;;;;;;5.63;4.72;;;;;;;28.67;57.46;97952.19;5034744;28;20209;-85
2023/08/24 10:14:00;;;;;;;5.47;4.90;;;;;;;28.85;55.63;97940.50;5035269;28;20324;-86
2023/08/24 10:16:30;;;;;;;6.43;5.30;;;;;;;28.97;55.46;97938.75;5035326;28;20236;-85
2023/08/24 10:18:58;;;;;;;5.38;4.88;;;;;;;29.08;55.65;97936.09;5034873;28;20205;-85
2023/08/24 10:21:25;;;;;;;5.60;5.07;;;;;;;29.22;54.44;97915.81;5034512;28;20208;-86
2023/08/24 10:23:53;;;;;;;6.20;5.63;;;;;;;29.29;54.45;97923.91;5034930;28;20228;-86
2023/08/24 10:26:21;;;;;;;5.88;5.00;;;;;;;29.45;55.79;97920.53;5034797;28;20308;-86
2023/08/24 10:28:50;;;;;;;6.63;5.47;;;;;;;29.65;56.11;97932.84;5034904;28;20436;-86
2023/08/24 10:31:17;;;;;;;6.68;5.53;;;;;;;29.86;54.56;97912.44;5034441;28;20209;-85
2023/08/24 10:33:46;;;;;;;6.22;5.10;;;;;;;29.95;54.41;97914.59;5034485;28;20205;-86
2023/08/24 10:36:14;;;;;;;7.20;5.57;;;;;;;30.11;54.26;97911.22;5034508;28;20235;-87
2023/08/24 10:38:42;;;;;;;6.40;5.80;;;;;;;30.19;53.69;97902.69;5034757;28;20259;-86
2023/08/24 10:41:09;;;;;;;6.05;5.55;;;;;;;30.35;53.43;97898.44;5034115;28;20684;-86
2023/08/24 10:43:36;;;;;;;5.82;5.32;;;;;;;30.33;53.14;97897.88;5034353;28;20263;-87
2023/08/24 10:46:04;;;;;;;6.35;5.75;;;;;;;30.34;53.83;97888.63;5034176;28;20716;-85
2023/08/24 10:48:51;;;;;;;6.32;5.75;;;;;;;30.41;54.26;97892.03;5034402;28;20209;-85
2023/08/24 10:51:22;;;;;;;6.25;5.65;;;;;;;30.61;54.67;97889.78;5033929;28;20217;-87
2023/08/24 10:53:52;;;;;;;7.70;5.63;;;;;;;30.83;53.77;97869.88;5034363;28;20208;-85
2023/08/24 10:56:19;;;;;;;6.32;5.72;;;;;;;30.96;52.61;97857.84;5034055;28;20235;-85
2023/08/24 10:58:47;;;;;;;6.88;5.50;;;;;;;31.03;52.01;97855.81;5033857;28;20204;-86
2023/08/24 11:01:17;;;;;;;5.90;5.40;;;;;;;31.09;52.60;97860.31;5033720;28;20220;-85
2023/08/24 11:03:49;;;;;;;6.28;5.75;;;;;;;31.23;52.87;97857.09;5033646;28;20229;-85
2023/08/24 11:06:21;;;;;;;5.60;5.10;;;;;;;31.26;52.36;97855.78;5034256;28;20245;-86
2023/08/24 11:08:49;;;;;;;6.28;5.65;;;;;;;31.30;52.18;97856.97;5033707;28;20215;-86
2023/08/24 11:11:24;;;;;;;6.53;5.35;;;;;;;31.36;52.54;97850.53;5033409;28;20209;-86
2023/08/24 11:14:17;;;;;;;5.85;5.35;;;;;;;31.32;52.25;97849.34;5032854;28;20671;-85
2023/08/24 11:16:44;;;;;;;6.28;5.72;;;;;;;31.36;52.15;97853.25;5033698;28;20320;-86
2023/08/24 11:19:12;;;;;;;5.78;5.28;;;;;;;31.33;52.38;97856.47;5033405;28;20213;-86
2023/08/24 11:21:41;;;;;;;6.10;5.50;;;;;;;31.42;53.48;97853.09;5034032;28;20602;-85
2023/08/24 11:24:09;;;;;;;6.80;5.90;;;;;;;31.45;52.76;97855.34;5033531;28;20239;-86
2023/08/24 11:26:40;;;;;;;8.05;5.65;;;;;;;31.55;52.98;97846.50;5035945;28;20244;-85
2023/08/24 11:29:07;;;;;;;6.03;5.53;;;;;;;31.53;51.95;97840.47;5045307;28;20218;-85